createdAt,value
2022-09-12T00:00:15.809Z,7.85
2022-09-12T00:02:42.439Z,7.40
2022-09-12T00:05:09.026Z,8.18
2022-09-12T00:07:35.635Z,7.85
2022-09-12T00:10:02.213Z,7.00
2022-09-12T00:12:28.759Z,7.22
2022-09-12T00:14:55.340Z,7.80
2022-09-12T00:17:21.982Z,8.15
2022-09-12T00:19:48.529Z,7.90
2022-09-12T00:22:15.067Z,8.85
2022-09-12T00:24:41.692Z,8.55
2022-09-12T00:27:08.319Z,9.35
2022-09-12T00:29:34.921Z,9.27
2022-09-12T00:32:01.784Z,8.45
2022-09-12T00:34:28.384Z,9.10
2022-09-12T00:36:54.960Z,10.68
2022-09-12T00:39:21.537Z,9.48
2022-09-12T00:41:48.118Z,10.68
2022-09-12T00:44:24.189Z,9.32
2022-09-12T00:46:54.784Z,13.13
2022-09-12T00:49:21.289Z,11.73
2022-09-12T00:52:10.681Z,10.85
2022-09-12T00:54:47.239Z,11.90
2022-09-12T00:57:14.583Z,11.98
2022-09-12T00:59:54.196Z,12.43
2022-09-12T01:02:21.497Z,13.38
2022-09-12T01:04:48.473Z,14.15
2022-09-12T01:07:15.475Z,15.13
2022-09-12T01:09:43.948Z,12.95
2022-09-12T01:12:11.635Z,12.88
2022-09-12T01:14:39.129Z,15.80
2022-09-12T01:17:06.025Z,17.60
2022-09-12T01:19:41.821Z,16.90
2022-09-12T01:22:29.568Z,16.23
2022-09-12T01:25:15.075Z,14.32
2022-09-12T01:27:44.556Z,14.45
2022-09-12T01:30:23.014Z,15.60
2022-09-12T01:35:40.316Z,14.32
2022-09-12T01:38:37.973Z,13.85
2022-09-12T01:41:14.476Z,14.20
2022-09-12T01:43:48.564Z,16.50
2022-09-12T01:46:36.077Z,14.02
2022-09-12T01:49:08.293Z,14.27
2022-09-12T01:51:53.567Z,13.93
2022-09-12T01:54:39.975Z,18.95
2022-09-12T01:57:11.714Z,16.42
2022-09-12T01:59:45.136Z,15.80
2022-09-12T02:02:42.503Z,14.98
2022-09-12T02:05:17.380Z,14.13
2022-09-12T02:07:47.112Z,15.55
2022-09-12T02:10:17.323Z,16.70
2022-09-12T02:12:56.976Z,16.50
2022-09-12T02:15:30.601Z,14.57
2022-09-12T02:17:58.307Z,16.00
2022-09-12T02:20:47.570Z,14.43
2022-09-12T02:23:27.913Z,14.40
2022-09-12T02:26:03.614Z,16.20
2022-09-12T02:28:33.794Z,14.88
2022-09-12T02:31:18.876Z,14.68
2022-09-12T02:33:57.886Z,13.32
2022-09-12T02:36:43.542Z,16.70
2022-09-12T02:39:10.180Z,13.80
2022-09-12T02:41:37.106Z,12.20
2022-09-12T02:44:04.284Z,13.07
2022-09-12T02:46:40.772Z,12.98
2022-09-12T02:49:09.423Z,13.95
2022-09-12T02:51:36.878Z,13.07
2022-09-12T02:54:03.651Z,13.00
2022-09-12T02:56:31.289Z,12.68
2022-09-12T02:59:02.421Z,14.03
2022-09-12T03:01:34.092Z,12.35
2022-09-12T03:04:11.175Z,11.88
2022-09-12T03:06:50.076Z,12.55
2022-09-12T03:09:53.568Z,14.70
2022-09-12T03:12:41.573Z,12.48
2022-09-12T03:15:29.984Z,11.85
2022-09-12T03:21:14.168Z,13.68
2022-09-12T03:24:06.960Z,14.75
2022-09-12T03:27:15.555Z,13.05
2022-09-12T03:29:43.135Z,12.95
2022-09-12T03:32:09.688Z,12.90
2022-09-12T03:34:36.543Z,13.05
2022-09-12T03:37:03.652Z,13.38
2022-09-12T03:39:31.056Z,13.02
2022-09-12T03:41:57.852Z,13.75
2022-09-12T03:44:24.996Z,14.10
2022-09-12T03:46:51.700Z,13.57
2022-09-12T03:49:18.589Z,13.38
2022-09-12T03:51:45.167Z,13.15
2022-09-12T03:54:12.083Z,14.90
2022-09-12T03:56:39.240Z,13.77
2022-09-12T03:59:06.880Z,13.25
2022-09-12T04:01:33.891Z,13.57
2022-09-12T04:04:00.613Z,15.40
2022-09-12T04:06:27.327Z,13.52
2022-09-12T04:08:55.065Z,13.38
2022-09-12T04:11:22.528Z,13.93
2022-09-12T04:13:49.470Z,14.93
2022-09-12T04:16:17.505Z,14.90
2022-09-12T04:18:44.754Z,15.17
2022-09-12T04:21:14.369Z,14.07
2022-09-12T04:23:41.016Z,12.98
2022-09-12T04:26:07.970Z,15.52
2022-09-12T04:28:36.452Z,12.63
2022-09-12T04:31:13.525Z,13.45
2022-09-12T04:33:40.202Z,14.02
2022-09-12T04:36:08.214Z,15.38
2022-09-12T04:38:35.965Z,15.52
2022-09-12T04:41:24.256Z,15.45
2022-09-12T04:46:26.288Z,13.00
2022-09-12T04:48:56.604Z,13.77
2022-09-12T04:51:27.955Z,15.70
2022-09-12T04:54:03.454Z,16.98
2022-09-12T04:56:30.708Z,14.73
2022-09-12T04:59:01.415Z,13.82
2022-09-12T05:01:30.290Z,15.55
2022-09-12T05:03:57.878Z,15.20
2022-09-12T05:06:26.553Z,15.82
2022-09-12T05:08:53.456Z,13.88
2022-09-12T05:11:32.992Z,13.70
2022-09-12T05:14:08.178Z,12.10
2022-09-12T05:16:34.830Z,14.80
2022-09-12T05:19:01.458Z,14.32
2022-09-12T05:21:28.135Z,13.15
2022-09-12T05:23:56.165Z,12.63
2022-09-12T05:26:23.527Z,12.70
2022-09-12T05:28:51.222Z,12.75
2022-09-12T05:31:28.158Z,11.17
2022-09-12T05:33:56.403Z,12.02
2022-09-12T05:36:25.453Z,9.48
2022-09-12T05:38:52.223Z,9.52
2022-09-12T05:41:27.387Z,10.75
2022-09-12T05:43:55.597Z,10.82
2022-09-12T05:46:24.291Z,10.10
2022-09-12T05:48:55.609Z,9.80
2022-09-12T05:51:25.506Z,8.18
2022-09-12T05:53:54.439Z,7.70
2022-09-12T05:56:26.342Z,8.82
2022-09-12T05:59:02.595Z,8.75
2022-09-12T06:01:31.034Z,9.65
2022-09-12T06:06:29.114Z,8.90
2022-09-12T06:09:00.881Z,8.85
2022-09-12T06:11:30.260Z,7.90
2022-09-12T06:13:58.190Z,8.75
2022-09-12T06:16:27.488Z,9.38
2022-09-12T06:18:59.527Z,10.85
2022-09-12T06:21:26.804Z,11.10
2022-09-12T06:23:58.585Z,10.00
2022-09-12T06:26:26.176Z,11.68
2022-09-12T06:28:54.411Z,11.60
2022-09-12T06:31:35.256Z,11.27
2022-09-12T06:34:05.663Z,12.93
2022-09-12T06:36:36.222Z,13.77
2022-09-12T06:39:05.258Z,15.73
2022-09-12T06:41:32.267Z,14.40
2022-09-12T06:44:00.156Z,16.00
2022-09-12T06:46:27.464Z,12.30
2022-09-12T06:48:56.309Z,15.15
2022-09-12T06:51:23.761Z,11.60
2022-09-12T06:53:50.523Z,11.68
2022-09-12T06:56:21.775Z,12.25
2022-09-12T06:58:49.948Z,9.90
2022-09-12T07:01:21.452Z,14.68
2022-09-12T07:03:59.305Z,12.02
2022-09-12T07:06:31.687Z,11.70
2022-09-12T07:08:59.472Z,11.98
2022-09-12T07:11:28.405Z,11.50
2022-09-12T07:13:56.549Z,11.57
2022-09-12T07:16:23.708Z,11.82
2022-09-12T07:18:55.430Z,11.32
2022-09-12T07:21:22.040Z,11.32
2022-09-12T07:23:49.265Z,12.25
2022-09-12T07:26:16.570Z,10.13
2022-09-12T07:28:43.435Z,11.07
2022-09-12T07:31:09.968Z,12.63
2022-09-12T07:33:37.313Z,11.25
2022-09-12T07:36:11.774Z,10.65
2022-09-12T07:38:42.063Z,10.48
2022-09-12T07:41:11.988Z,11.80
2022-09-12T07:43:38.585Z,10.57
2022-09-12T07:46:05.298Z,10.02
2022-09-12T07:48:31.943Z,10.52
2022-09-12T07:51:02.383Z,10.68
2022-09-12T07:53:37.393Z,10.30
2022-09-12T07:56:05.585Z,12.40
2022-09-12T07:58:33.597Z,11.57
2022-09-12T08:01:03.456Z,10.73
2022-09-12T08:03:30.158Z,10.50
2022-09-12T08:06:03.945Z,11.38
2022-09-12T08:08:30.494Z,10.68
2022-09-12T08:10:59.870Z,8.77
2022-09-12T08:13:30.104Z,9.55
2022-09-12T08:16:00.412Z,9.52
2022-09-12T08:18:28.263Z,8.70
2022-09-12T08:20:59.244Z,8.73
2022-09-12T08:23:28.127Z,8.52
2022-09-12T08:26:06.264Z,8.38
2022-09-12T08:28:34.321Z,7.85
2022-09-12T08:31:05.996Z,8.43
2022-09-12T08:33:33.666Z,8.93
2022-09-12T08:36:11.453Z,8.70
2022-09-12T08:38:42.953Z,9.50
2022-09-12T08:41:18.684Z,8.85
2022-09-12T08:44:23.202Z,7.47
2022-09-12T08:47:08.485Z,8.65
2022-09-12T08:50:03.147Z,8.25
2022-09-12T08:52:41.579Z,7.13
2022-09-12T08:57:40.100Z,7.05
2022-09-12T09:00:07.428Z,8.23
2022-09-12T09:03:01.819Z,7.45
2022-09-12T09:05:31.078Z,7.95
2022-09-12T09:08:03.763Z,7.97
2022-09-12T09:10:53.098Z,8.02
2022-09-12T09:14:22.868Z,7.88
2022-09-12T09:16:52.896Z,9.90
2022-09-12T09:19:29.782Z,9.25
2022-09-12T09:22:18.638Z,7.85
2022-09-12T09:24:51.913Z,9.88
2022-09-12T09:27:41.973Z,9.85
2022-09-12T09:30:15.502Z,7.70
2022-09-12T09:32:42.945Z,8.05
2022-09-12T09:35:32.153Z,8.95
2022-09-12T09:38:22.654Z,7.10
2022-09-12T09:41:00.942Z,6.63
2022-09-12T09:43:28.991Z,7.03
2022-09-12T09:45:57.131Z,8.30
2022-09-12T09:48:31.913Z,7.43
2022-09-12T09:51:05.129Z,6.68
2022-09-12T09:53:53.421Z,7.65
2022-09-12T09:58:49.968Z,5.65
2022-09-12T10:01:17.662Z,6.22
2022-09-12T10:03:51.924Z,5.70
2022-09-12T10:06:32.849Z,6.72
2022-09-12T10:09:14.749Z,6.72
2022-09-12T10:11:45.229Z,5.93
2022-09-12T10:14:35.941Z,6.57
2022-09-12T10:17:22.412Z,6.32
2022-09-12T10:20:04.498Z,5.18
2022-09-12T10:22:35.632Z,5.50
2022-09-12T10:25:02.519Z,4.57
2022-09-12T10:27:31.387Z,4.95
2022-09-12T10:30:04.486Z,4.30
2022-09-12T10:32:36.152Z,6.40
2022-09-12T10:35:07.445Z,5.30
2022-09-12T10:37:36.273Z,5.60
2022-09-12T10:40:05.061Z,6.60
2022-09-12T10:42:47.043Z,6.32
2022-09-12T10:45:26.382Z,7.20
2022-09-12T10:47:54.459Z,5.38
2022-09-12T10:50:31.024Z,6.07
2022-09-12T10:53:33.738Z,6.68
2022-09-12T10:56:08.897Z,7.70
2022-09-12T10:58:48.190Z,6.60
2022-09-12T11:01:36.790Z,7.68
2022-09-12T11:04:24.856Z,6.32
2022-09-12T11:07:16.327Z,5.97
2022-09-12T11:09:45.959Z,7.82
2022-09-12T11:12:18.663Z,5.63
2022-09-12T11:14:57.393Z,7.38
2022-09-12T11:17:57.412Z,7.55
2022-09-12T11:21:07.473Z,7.72
2022-09-12T11:24:15.413Z,5.93
2022-09-12T11:26:53.726Z,5.10
2022-09-12T11:29:26.247Z,5.65
2022-09-12T11:32:20.925Z,6.82
2022-09-12T11:35:17.167Z,7.20
2022-09-12T11:38:02.333Z,6.60
2022-09-12T11:40:56.789Z,6.47
2022-09-12T11:43:33.465Z,6.30
2022-09-12T11:46:13.616Z,6.25
2022-09-12T11:48:48.984Z,7.30
2022-09-12T11:51:21.211Z,7.32
2022-09-12T11:54:03.779Z,6.82
2022-09-12T11:56:30.663Z,5.63
2022-09-12T11:59:02.588Z,6.72
2022-09-12T12:01:40.958Z,5.97
2022-09-12T12:04:12.985Z,5.68
2022-09-12T12:06:50.292Z,6.75
2022-09-12T12:09:17.771Z,5.57
2022-09-12T12:11:57.092Z,6.35
2022-09-12T12:14:40.764Z,6.80
2022-09-12T12:17:15.624Z,6.38
2022-09-12T12:19:42.296Z,6.43
2022-09-12T12:22:20.670Z,5.63
2022-09-12T12:27:44.565Z,4.97
2022-09-12T12:30:56.156Z,4.57
2022-09-12T12:33:22.656Z,5.13
2022-09-12T12:36:01.671Z,5.03
2022-09-12T12:38:34.040Z,5.50
2022-09-12T12:41:18.963Z,5.88
2022-09-12T12:43:49.279Z,6.38
2022-09-12T12:46:17.564Z,5.70
2022-09-12T12:48:50.121Z,5.57
2022-09-12T12:51:32.939Z,6.57
2022-09-12T12:54:01.435Z,5.43
2022-09-12T12:59:13.288Z,6.75
2022-09-12T13:01:45.771Z,5.90
2022-09-12T13:04:16.060Z,6.13
2022-09-12T13:06:44.584Z,5.55
2022-09-12T13:11:57.447Z,4.85
2022-09-12T13:14:42.749Z,5.40
2022-09-12T13:17:16.381Z,3.50
2022-09-12T13:19:43.204Z,5.47
2022-09-12T13:22:10.628Z,4.70
2022-09-12T13:24:49.185Z,4.70
2022-09-12T13:27:21.900Z,4.82
2022-09-12T13:29:49.120Z,5.07
2022-09-12T13:32:16.846Z,5.25
2022-09-12T13:35:13.660Z,5.97
2022-09-12T13:37:55.886Z,4.82
2022-09-12T13:40:45.967Z,4.68
2022-09-12T13:43:17.280Z,5.00
2022-09-12T13:45:46.158Z,4.15
2022-09-12T13:48:19.087Z,4.32
2022-09-12T13:51:00.292Z,4.03
2022-09-12T13:53:31.956Z,6.13
2022-09-12T13:55:59.719Z,6.50
2022-09-12T13:58:31.573Z,5.43
2022-09-12T14:01:10.345Z,4.72
2022-09-12T14:04:08.048Z,5.28
2022-09-12T14:06:49.700Z,4.72
2022-09-12T14:09:25.369Z,3.50
2022-09-12T14:11:53.017Z,4.93
2022-09-12T14:14:32.997Z,4.35
2022-09-12T14:17:00.481Z,3.72
2022-09-12T14:19:29.191Z,4.47
2022-09-12T14:21:57.466Z,4.32
2022-09-12T14:24:24.303Z,3.70
2022-09-12T14:26:52.985Z,3.80
2022-09-12T14:29:20.915Z,4.40
2022-09-12T14:31:48.750Z,4.80
2022-09-12T14:34:18.356Z,4.68
2022-09-12T14:36:48.989Z,3.88
2022-09-12T14:39:24.797Z,4.13
2022-09-12T14:41:52.758Z,4.38
2022-09-12T14:44:29.638Z,3.75
2022-09-12T14:46:57.115Z,4.05
2022-09-12T14:49:31.599Z,3.60
2022-09-12T14:52:01.545Z,3.80
2022-09-12T14:54:28.789Z,3.17
2022-09-12T14:56:57.992Z,2.38
2022-09-12T14:59:33.818Z,2.80
2022-09-12T15:02:21.846Z,3.30
2022-09-12T15:05:16.728Z,3.47
2022-09-12T15:07:55.532Z,3.97
2022-09-12T15:10:31.421Z,3.47
2022-09-12T15:13:14.365Z,3.10
2022-09-12T15:15:46.376Z,2.88
2022-09-12T15:18:13.882Z,3.13
2022-09-12T15:20:42.601Z,2.85
2022-09-12T15:23:47.738Z,2.55
2022-09-12T15:26:20.000Z,2.85
2022-09-12T15:28:46.800Z,2.97
2022-09-12T15:31:24.274Z,2.72
2022-09-12T15:33:51.086Z,3.67
2022-09-12T15:36:20.197Z,2.60
2022-09-12T15:38:47.619Z,2.97
2022-09-12T15:41:17.535Z,3.28
2022-09-12T15:43:44.750Z,2.80
2022-09-12T15:46:15.908Z,3.25
2022-09-12T15:48:43.436Z,3.17
2022-09-12T15:51:18.431Z,3.10
2022-09-12T15:53:46.057Z,2.97
2022-09-12T15:56:12.697Z,2.80
2022-09-12T15:58:54.643Z,2.95
2022-09-12T16:01:24.669Z,3.33
2022-09-12T16:03:51.268Z,3.55
2022-09-12T16:06:17.915Z,3.53
2022-09-12T16:08:44.628Z,2.85
2022-09-12T16:11:24.912Z,2.83
2022-09-12T16:13:55.491Z,2.80
2022-09-12T16:16:22.159Z,2.78
2022-09-12T16:18:49.203Z,3.00
2022-09-12T16:21:16.243Z,2.72
2022-09-12T16:23:46.963Z,2.72
2022-09-12T16:26:13.543Z,2.95
2022-09-12T16:28:40.480Z,2.67
2022-09-12T16:31:08.909Z,3.03
2022-09-12T16:33:36.997Z,3.30
2022-09-12T16:36:05.972Z,3.38
2022-09-12T16:38:33.817Z,3.30
2022-09-12T16:41:05.039Z,3.00
2022-09-12T16:43:32.793Z,2.90
2022-09-12T16:46:05.473Z,2.58
2022-09-12T16:48:32.749Z,2.85
2022-09-12T16:51:02.028Z,3.20
2022-09-12T16:53:35.646Z,2.90
2022-09-12T16:56:02.481Z,2.88
2022-09-12T16:58:32.858Z,2.83
2022-09-12T17:01:05.221Z,3.00
2022-09-12T17:03:32.146Z,2.90
2022-09-12T17:06:07.872Z,2.75
2022-09-12T17:08:38.060Z,3.20
2022-09-12T17:11:16.530Z,2.88
2022-09-12T17:14:04.317Z,3.50
2022-09-12T17:18:58.354Z,3.08
2022-09-12T17:21:24.951Z,3.08
2022-09-12T17:23:51.596Z,2.80
2022-09-12T17:26:18.249Z,2.92
2022-09-12T17:28:45.055Z,3.38
2022-09-12T17:31:13.811Z,2.95
2022-09-12T17:33:41.167Z,2.95
2022-09-12T17:36:13.546Z,3.10
2022-09-12T17:38:40.107Z,2.95
2022-09-12T17:41:27.527Z,3.25
2022-09-12T17:43:56.621Z,3.30
2022-09-12T17:46:25.157Z,3.47
2022-09-12T17:48:56.922Z,3.10
2022-09-12T17:51:25.902Z,3.30
2022-09-12T17:54:05.508Z,3.30
2022-09-12T17:56:33.381Z,3.38
2022-09-12T17:59:00.566Z,3.58
2022-09-12T18:01:46.915Z,3.58
2022-09-12T18:04:13.843Z,3.97
2022-09-12T18:06:40.915Z,3.20
2022-09-12T18:09:09.208Z,3.33
2022-09-12T18:11:36.287Z,3.53
2022-09-12T18:14:03.009Z,3.83
2022-09-12T18:16:31.353Z,3.80
2022-09-12T18:19:01.501Z,3.67
2022-09-12T18:21:29.305Z,3.80
2022-09-12T18:23:59.455Z,4.28
2022-09-12T18:26:27.907Z,3.75
2022-09-12T18:31:23.787Z,3.85
2022-09-12T18:33:50.438Z,3.70
2022-09-12T18:36:18.512Z,3.88
2022-09-12T18:38:44.985Z,3.95
2022-09-12T18:41:20.317Z,3.90
2022-09-12T18:43:47.569Z,4.15
2022-09-12T18:46:19.066Z,3.88
2022-09-12T18:48:46.423Z,4.10
2022-09-12T18:51:15.275Z,4.68
2022-09-12T18:53:42.863Z,4.38
2022-09-12T18:56:13.590Z,4.63
2022-09-12T18:58:42.677Z,4.20
2022-09-12T19:01:15.136Z,4.10
2022-09-12T19:03:42.511Z,3.97
2022-09-12T19:06:11.843Z,4.75
2022-09-12T19:08:38.699Z,4.43
2022-09-12T19:11:06.435Z,5.00
2022-09-12T19:13:37.603Z,3.88
2022-09-12T19:16:05.730Z,4.38
2022-09-12T19:18:34.018Z,4.50
2022-09-12T19:21:01.477Z,4.90
2022-09-12T19:23:28.926Z,4.40
2022-09-12T19:25:57.218Z,4.22
2022-09-12T19:28:23.968Z,4.18
2022-09-12T19:30:50.779Z,4.85
2022-09-12T19:33:17.430Z,4.53
2022-09-12T19:35:43.980Z,4.45
2022-09-12T19:38:10.681Z,4.47
2022-09-12T19:40:38.003Z,4.35
2022-09-12T19:43:04.545Z,4.32
2022-09-12T19:45:31.174Z,4.40
2022-09-12T19:47:57.839Z,4.40
2022-09-12T19:50:24.586Z,4.60
2022-09-12T19:52:51.148Z,4.95
2022-09-12T19:55:17.724Z,4.00
2022-09-12T19:57:44.286Z,4.18
2022-09-12T20:00:11.743Z,5.22
2022-09-12T20:02:38.343Z,4.38
2022-09-12T20:05:05.271Z,3.95
2022-09-12T20:07:31.811Z,4.45
2022-09-12T20:09:58.407Z,4.70
2022-09-12T20:12:24.995Z,4.30
2022-09-12T20:14:51.647Z,4.43
2022-09-12T20:17:18.202Z,4.40
2022-09-12T20:19:45.176Z,4.40
2022-09-12T20:22:11.738Z,4.53
2022-09-12T20:24:38.370Z,4.22
2022-09-12T20:27:04.895Z,4.63
2022-09-12T20:29:31.425Z,4.38
2022-09-12T20:31:57.984Z,4.40
2022-09-12T20:34:24.603Z,4.03
2022-09-12T20:36:51.236Z,4.50
2022-09-12T20:39:20.843Z,4.13
2022-09-12T20:41:47.916Z,4.15
2022-09-12T20:44:14.657Z,5.18
2022-09-12T20:46:41.531Z,3.92
2022-09-12T20:49:08.914Z,4.25
2022-09-12T20:51:36.523Z,4.15
2022-09-12T20:54:05.154Z,4.20
2022-09-12T20:56:34.092Z,5.25
2022-09-12T20:59:01.077Z,4.40
2022-09-12T21:01:28.928Z,4.22
2022-09-12T21:03:55.500Z,4.30
2022-09-12T21:06:22.335Z,4.15
2022-09-12T21:08:49.941Z,4.35
2022-09-12T21:11:17.577Z,4.57
2022-09-12T21:13:44.220Z,4.10
2022-09-12T21:16:16.113Z,4.22
2022-09-12T21:18:43.180Z,4.18
2022-09-12T21:21:11.530Z,3.83
2022-09-12T21:23:38.284Z,3.75
2022-09-12T21:26:04.940Z,4.65
2022-09-12T21:28:31.527Z,3.97
2022-09-12T21:30:58.277Z,4.60
2022-09-12T21:33:25.011Z,3.83
2022-09-12T21:35:51.617Z,4.00
2022-09-12T21:38:19.311Z,3.60
2022-09-12T21:40:46.804Z,4.30
2022-09-12T21:43:13.868Z,4.75
2022-09-12T21:45:40.613Z,3.70
2022-09-12T21:48:07.661Z,4.15
2022-09-12T21:50:34.506Z,4.43
2022-09-12T21:53:01.121Z,4.30
2022-09-12T21:55:27.917Z,4.20
2022-09-12T21:57:55.240Z,4.53
2022-09-12T22:00:22.619Z,4.47
2022-09-12T22:02:49.378Z,4.07
2022-09-12T22:05:16.785Z,4.28
2022-09-12T22:07:43.324Z,4.03
2022-09-12T22:10:10.077Z,4.30
2022-09-12T22:12:36.654Z,4.10
2022-09-12T22:15:22.779Z,3.95
2022-09-12T22:17:50.165Z,3.88
2022-09-12T22:20:16.780Z,4.20
2022-09-12T22:23:01.834Z,4.15
2022-09-12T22:25:28.538Z,4.13
2022-09-12T22:27:55.121Z,3.70
2022-09-12T22:30:22.637Z,3.95
2022-09-12T22:32:50.565Z,4.20
2022-09-12T22:35:18.223Z,3.88
2022-09-12T22:37:46.207Z,4.10
2022-09-12T22:40:13.010Z,3.72
2022-09-12T22:42:39.701Z,3.80
2022-09-12T22:45:07.667Z,3.78
2022-09-12T22:47:34.278Z,4.78
2022-09-12T22:50:00.840Z,4.68
2022-09-12T22:52:27.436Z,3.88
2022-09-12T22:54:54.015Z,4.43
2022-09-12T22:57:20.542Z,3.83
2022-09-12T22:59:47.168Z,4.55
2022-09-12T23:02:13.733Z,4.30
2022-09-12T23:04:40.295Z,4.47
2022-09-12T23:07:06.889Z,4.32
2022-09-12T23:09:35.530Z,4.60
2022-09-12T23:12:02.757Z,4.18
2022-09-12T23:14:29.384Z,4.22
2022-09-12T23:16:56.015Z,4.30
2022-09-12T23:19:22.681Z,4.28
2022-09-12T23:21:49.228Z,4.13
2022-09-12T23:24:15.816Z,4.18
2022-09-12T23:26:42.883Z,4.40
2022-09-12T23:29:09.440Z,4.32
2022-09-12T23:31:36.298Z,4.20
2022-09-12T23:34:05.859Z,4.10
2022-09-12T23:36:33.468Z,4.32
2022-09-12T23:39:00.245Z,3.72
2022-09-12T23:41:26.889Z,4.18
2022-09-12T23:43:53.756Z,3.75
2022-09-12T23:46:20.787Z,3.72
2022-09-12T23:48:47.835Z,4.38
2022-09-12T23:51:14.821Z,4.70
2022-09-12T23:53:41.892Z,4.13
2022-09-12T23:56:08.718Z,4.20
2022-09-12T23:58:35.316Z,4.43
